sensor_id;sensor_type;location;lat;lon;timestamp;P1;durP1;ratioP1;P2;durP2;ratioP2
4553;SDS011;2289;48.316;15.174;2023-02-28T00:00:07;11.27;;;7.30;;
4553;SDS011;2289;48.316;15.174;2023-02-28T00:02:38;9.07;;;6.10;;
4553;SDS011;2289;48.316;15.174;2023-02-28T00:05:08;8.80;;;6.17;;
4553;SDS011;2289;48.316;15.174;2023-02-28T00:07:38;11.47;;;7.10;;
4553;SDS011;2289;48.316;15.174;2023-02-28T00:10:09;10.83;;;6.57;;
4553;SDS011;2289;48.316;15.174;2023-02-28T00:12:39;6.20;;;5.33;;
4553;SDS011;2289;48.316;15.174;2023-02-28T00:15:12;11.27;;;6.83;;
4553;SDS011;2289;48.316;15.174;2023-02-28T00:17:42;12.73;;;6.83;;
4553;SDS011;2289;48.316;15.174;2023-02-28T00:20:12;8.17;;;6.40;;
4553;SDS011;2289;48.316;15.174;2023-02-28T00:22:42;8.87;;;5.67;;
4553;SDS011;2289;48.316;15.174;2023-02-28T00:25:55;10.20;;;7.00;;
4553;SDS011;2289;48.316;15.174;2023-02-28T00:28:28;10.30;;;6.43;;
4553;SDS011;2289;48.316;15.174;2023-02-28T00:30:57;10.70;;;7.30;;
4553;SDS011;2289;48.316;15.174;2023-02-28T00:33:28;13.20;;;7.37;;
4553;SDS011;2289;48.316;15.174;2023-02-28T00:36:03;11.40;;;7.90;;
4553;SDS011;2289;48.316;15.174;2023-02-28T00:38:33;9.13;;;6.03;;
4553;SDS011;2289;48.316;15.174;2023-02-28T00:41:02;13.87;;;6.43;;
4553;SDS011;2289;48.316;15.174;2023-02-28T00:43:32;9.80;;;6.13;;
4553;SDS011;2289;48.316;15.174;2023-02-28T00:46:02;14.37;;;7.07;;
4553;SDS011;2289;48.316;15.174;2023-02-28T00:48:36;12.93;;;7.60;;
4553;SDS011;2289;48.316;15.174;2023-02-28T00:51:05;9.43;;;6.27;;
4553;SDS011;2289;48.316;15.174;2023-02-28T00:53:34;11.57;;;7.20;;
4553;SDS011;2289;48.316;15.174;2023-02-28T00:56:03;19.13;;;8.93;;
4553;SDS011;2289;48.316;15.174;2023-02-28T00:58:32;11.90;;;8.10;;
4553;SDS011;2289;48.316;15.174;2023-02-28T01:01:03;10.00;;;7.70;;
4553;SDS011;2289;48.316;15.174;2023-02-28T01:03:32;12.20;;;7.20;;
4553;SDS011;2289;48.316;15.174;2023-02-28T01:06:02;13.17;;;7.13;;
4553;SDS011;2289;48.316;15.174;2023-02-28T01:08:31;13.77;;;7.33;;
4553;SDS011;2289;48.316;15.174;2023-02-28T01:11:06;9.83;;;5.90;;
4553;SDS011;2289;48.316;15.174;2023-02-28T01:13:38;13.47;;;7.50;;
4553;SDS011;2289;48.316;15.174;2023-02-28T01:16:07;11.50;;;6.97;;
4553;SDS011;2289;48.316;15.174;2023-02-28T01:18:36;11.23;;;6.60;;
4553;SDS011;2289;48.316;15.174;2023-02-28T01:21:07;11.40;;;7.30;;
4553;SDS011;2289;48.316;15.174;2023-02-28T01:23:43;11.70;;;7.17;;
4553;SDS011;2289;48.316;15.174;2023-02-28T01:26:14;9.83;;;7.10;;
4553;SDS011;2289;48.316;15.174;2023-02-28T01:28:44;9.20;;;5.30;;
4553;SDS011;2289;48.316;15.174;2023-02-28T01:31:13;11.23;;;7.10;;
4553;SDS011;2289;48.316;15.174;2023-02-28T01:33:42;14.77;;;7.97;;
4553;SDS011;2289;48.316;15.174;2023-02-28T01:36:14;9.03;;;6.90;;
4553;SDS011;2289;48.316;15.174;2023-02-28T01:38:44;12.50;;;7.43;;
4553;SDS011;2289;48.316;15.174;2023-02-28T01:41:14;12.07;;;7.60;;
4553;SDS011;2289;48.316;15.174;2023-02-28T01:43:55;13.17;;;8.30;;
4553;SDS011;2289;48.316;15.174;2023-02-28T01:46:30;14.40;;;8.30;;
4553;SDS011;2289;48.316;15.174;2023-02-28T01:49:01;11.87;;;7.43;;
4553;SDS011;2289;48.316;15.174;2023-02-28T01:51:33;11.00;;;7.40;;
4553;SDS011;2289;48.316;15.174;2023-02-28T01:54:05;10.93;;;6.60;;
4553;SDS011;2289;48.316;15.174;2023-02-28T01:56:41;10.57;;;6.37;;
4553;SDS011;2289;48.316;15.174;2023-02-28T01:59:12;10.47;;;7.50;;
4553;SDS011;2289;48.316;15.174;2023-02-28T02:01:42;9.40;;;6.83;;
4553;SDS011;2289;48.316;15.174;2023-02-28T02:04:11;11.23;;;8.00;;
4553;SDS011;2289;48.316;15.174;2023-02-28T02:06:42;17.27;;;8.20;;
4553;SDS011;2289;48.316;15.174;2023-02-28T02:09:13;10.27;;;6.93;;
4553;SDS011;2289;48.316;15.174;2023-02-28T02:11:42;11.67;;;7.57;;
4553;SDS011;2289;48.316;15.174;2023-02-28T02:14:22;13.30;;;8.30;;
4553;SDS011;2289;48.316;15.174;2023-02-28T02:17:13;12.87;;;7.13;;
4553;SDS011;2289;48.316;15.174;2023-02-28T02:23:34;9.70;;;6.70;;
4553;SDS011;2289;48.316;15.174;2023-02-28T02:29:22;10.93;;;7.30;;
4553;SDS011;2289;48.316;15.174;2023-02-28T02:32:12;9.87;;;6.53;;
4553;SDS011;2289;48.316;15.174;2023-02-28T02:34:52;13.07;;;6.60;;
4553;SDS011;2289;48.316;15.174;2023-02-28T02:37:25;10.40;;;7.13;;
4553;SDS011;2289;48.316;15.174;2023-02-28T02:39:59;11.50;;;7.10;;
4553;SDS011;2289;48.316;15.174;2023-02-28T02:42:33;10.97;;;6.37;;
4553;SDS011;2289;48.316;15.174;2023-02-28T02:45:05;10.77;;;7.43;;
4553;SDS011;2289;48.316;15.174;2023-02-28T02:47:35;10.63;;;7.10;;
4553;SDS011;2289;48.316;15.174;2023-02-28T02:50:08;10.30;;;6.83;;
4553;SDS011;2289;48.316;15.174;2023-02-28T02:52:40;12.17;;;7.70;;
4553;SDS011;2289;48.316;15.174;2023-02-28T02:55:12;13.10;;;7.70;;
4553;SDS011;2289;48.316;15.174;2023-02-28T02:57:43;13.93;;;8.53;;
4553;SDS011;2289;48.316;15.174;2023-02-28T03:00:14;10.87;;;7.57;;
4553;SDS011;2289;48.316;15.174;2023-02-28T03:02:44;10.80;;;6.87;;
4553;SDS011;2289;48.316;15.174;2023-02-28T03:05:17;10.70;;;7.53;;
4553;SDS011;2289;48.316;15.174;2023-02-28T03:07:48;13.70;;;8.80;;
4553;SDS011;2289;48.316;15.174;2023-02-28T03:10:27;15.67;;;8.37;;
4553;SDS011;2289;48.316;15.174;2023-02-28T03:13:02;12.33;;;8.20;;
4553;SDS011;2289;48.316;15.174;2023-02-28T03:15:48;16.50;;;9.40;;
4553;SDS011;2289;48.316;15.174;2023-02-28T03:18:24;13.20;;;7.33;;
4553;SDS011;2289;48.316;15.174;2023-02-28T03:21:03;13.93;;;8.90;;
4553;SDS011;2289;48.316;15.174;2023-02-28T03:23:37;12.63;;;8.57;;
4553;SDS011;2289;48.316;15.174;2023-02-28T03:26:12;18.47;;;11.70;;
4553;SDS011;2289;48.316;15.174;2023-02-28T03:28:47;13.70;;;8.73;;
4553;SDS011;2289;48.316;15.174;2023-02-28T03:31:19;18.00;;;9.40;;
4553;SDS011;2289;48.316;15.174;2023-02-28T03:33:50;11.10;;;8.47;;
4553;SDS011;2289;48.316;15.174;2023-02-28T03:36:26;11.27;;;8.10;;
4553;SDS011;2289;48.316;15.174;2023-02-28T03:38:59;15.80;;;8.33;;
4553;SDS011;2289;48.316;15.174;2023-02-28T03:41:31;12.60;;;7.90;;
4553;SDS011;2289;48.316;15.174;2023-02-28T03:44:04;11.10;;;7.73;;
4553;SDS011;2289;48.316;15.174;2023-02-28T03:46:37;12.00;;;8.30;;
4553;SDS011;2289;48.316;15.174;2023-02-28T03:53:00;14.20;;;8.13;;
4553;SDS011;2289;48.316;15.174;2023-02-28T03:55:39;14.93;;;8.87;;
4553;SDS011;2289;48.316;15.174;2023-02-28T03:58:14;18.70;;;9.93;;
4553;SDS011;2289;48.316;15.174;2023-02-28T04:00:46;17.77;;;9.90;;
4553;SDS011;2289;48.316;15.174;2023-02-28T04:03:17;16.00;;;7.57;;
4553;SDS011;2289;48.316;15.174;2023-02-28T04:05:50;15.43;;;7.50;;
4553;SDS011;2289;48.316;15.174;2023-02-28T04:08:21;14.70;;;10.00;;
4553;SDS011;2289;48.316;15.174;2023-02-28T04:10:51;12.00;;;7.20;;
4553;SDS011;2289;48.316;15.174;2023-02-28T04:13:22;12.93;;;9.17;;
4553;SDS011;2289;48.316;15.174;2023-02-28T04:15:51;11.10;;;8.73;;
4553;SDS011;2289;48.316;15.174;2023-02-28T04:18:20;13.87;;;8.63;;
4553;SDS011;2289;48.316;15.174;2023-02-28T04:20:48;17.97;;;10.20;;
4553;SDS011;2289;48.316;15.174;2023-02-28T04:23:17;28.03;;;12.10;;
4553;SDS011;2289;48.316;15.174;2023-02-28T04:25:47;35.73;;;16.80;;
4553;SDS011;2289;48.316;15.174;2023-02-28T04:28:36;28.77;;;16.00;;
4553;SDS011;2289;48.316;15.174;2023-02-28T04:31:05;24.57;;;14.03;;
4553;SDS011;2289;48.316;15.174;2023-02-28T04:33:33;25.83;;;13.70;;
4553;SDS011;2289;48.316;15.174;2023-02-28T04:36:03;20.77;;;13.47;;
4553;SDS011;2289;48.316;15.174;2023-02-28T04:38:34;31.07;;;14.93;;
4553;SDS011;2289;48.316;15.174;2023-02-28T04:41:05;20.87;;;11.27;;
4553;SDS011;2289;48.316;15.174;2023-02-28T04:43:34;18.10;;;9.83;;
4553;SDS011;2289;48.316;15.174;2023-02-28T04:46:03;16.40;;;10.80;;
4553;SDS011;2289;48.316;15.174;2023-02-28T04:48:38;16.23;;;11.73;;
4553;SDS011;2289;48.316;15.174;2023-02-28T04:51:08;15.63;;;10.70;;
4553;SDS011;2289;48.316;15.174;2023-02-28T04:56:28;16.93;;;10.13;;
4553;SDS011;2289;48.316;15.174;2023-02-28T04:59:04;18.70;;;11.13;;
4553;SDS011;2289;48.316;15.174;2023-02-28T05:01:33;19.80;;;11.73;;
4553;SDS011;2289;48.316;15.174;2023-02-28T05:04:05;15.00;;;9.73;;
4553;SDS011;2289;48.316;15.174;2023-02-28T05:06:34;18.00;;;9.47;;
4553;SDS011;2289;48.316;15.174;2023-02-28T05:09:03;17.23;;;9.67;;
4553;SDS011;2289;48.316;15.174;2023-02-28T05:11:33;14.67;;;8.93;;
4553;SDS011;2289;48.316;15.174;2023-02-28T05:14:02;13.30;;;8.80;;
4553;SDS011;2289;48.316;15.174;2023-02-28T05:16:32;13.57;;;8.00;;
4553;SDS011;2289;48.316;15.174;2023-02-28T05:19:00;14.33;;;7.87;;
4553;SDS011;2289;48.316;15.174;2023-02-28T05:21:30;11.37;;;7.33;;
4553;SDS011;2289;48.316;15.174;2023-02-28T05:24:01;9.57;;;6.60;;
4553;SDS011;2289;48.316;15.174;2023-02-28T05:26:31;13.20;;;8.40;;
4553;SDS011;2289;48.316;15.174;2023-02-28T05:29:13;13.03;;;8.20;;
4553;SDS011;2289;48.316;15.174;2023-02-28T05:31:44;14.17;;;8.40;;
4553;SDS011;2289;48.316;15.174;2023-02-28T05:34:17;13.10;;;7.03;;
4553;SDS011;2289;48.316;15.174;2023-02-28T05:36:45;16.13;;;9.50;;
4553;SDS011;2289;48.316;15.174;2023-02-28T05:39:14;27.37;;;10.70;;
4553;SDS011;2289;48.316;15.174;2023-02-28T05:41:44;15.30;;;8.20;;
4553;SDS011;2289;48.316;15.174;2023-02-28T05:44:12;13.40;;;7.50;;
4553;SDS011;2289;48.316;15.174;2023-02-28T05:46:41;15.63;;;9.17;;
4553;SDS011;2289;48.316;15.174;2023-02-28T05:49:09;10.57;;;8.70;;
4553;SDS011;2289;48.316;15.174;2023-02-28T05:51:38;16.70;;;9.17;;
4553;SDS011;2289;48.316;15.174;2023-02-28T05:54:07;13.97;;;8.70;;
4553;SDS011;2289;48.316;15.174;2023-02-28T05:56:39;19.83;;;10.00;;
4553;SDS011;2289;48.316;15.174;2023-02-28T05:59:14;14.00;;;9.60;;
4553;SDS011;2289;48.316;15.174;2023-02-28T06:01:43;14.10;;;8.60;;
4553;SDS011;2289;48.316;15.174;2023-02-28T06:04:15;15.20;;;8.70;;
4553;SDS011;2289;48.316;15.174;2023-02-28T06:06:57;14.70;;;9.37;;
4553;SDS011;2289;48.316;15.174;2023-02-28T06:09:26;22.83;;;9.00;;
4553;SDS011;2289;48.316;15.174;2023-02-28T06:11:57;12.17;;;9.03;;
4553;SDS011;2289;48.316;15.174;2023-02-28T06:14:27;20.87;;;12.67;;
4553;SDS011;2289;48.316;15.174;2023-02-28T06:16:57;18.27;;;9.17;;
4553;SDS011;2289;48.316;15.174;2023-02-28T06:19:27;14.40;;;8.50;;
4553;SDS011;2289;48.316;15.174;2023-02-28T06:21:57;13.53;;;8.80;;
4553;SDS011;2289;48.316;15.174;2023-02-28T06:24:26;12.07;;;7.97;;
4553;SDS011;2289;48.316;15.174;2023-02-28T06:26:57;16.90;;;9.83;;
4553;SDS011;2289;48.316;15.174;2023-02-28T06:29:33;13.43;;;9.40;;
4553;SDS011;2289;48.316;15.174;2023-02-28T06:32:02;15.03;;;9.30;;
4553;SDS011;2289;48.316;15.174;2023-02-28T06:34:31;12.80;;;8.63;;
4553;SDS011;2289;48.316;15.174;2023-02-28T06:37:00;17.13;;;10.50;;
4553;SDS011;2289;48.316;15.174;2023-02-28T06:39:29;11.90;;;8.03;;
4553;SDS011;2289;48.316;15.174;2023-02-28T06:41:58;13.80;;;8.17;;
4553;SDS011;2289;48.316;15.174;2023-02-28T06:44:29;18.00;;;8.37;;
4553;SDS011;2289;48.316;15.174;2023-02-28T06:47:04;14.10;;;8.70;;
4553;SDS011;2289;48.316;15.174;2023-02-28T06:49:36;10.67;;;8.00;;
4553;SDS011;2289;48.316;15.174;2023-02-28T06:52:05;9.37;;;7.27;;
4553;SDS011;2289;48.316;15.174;2023-02-28T06:54:36;17.47;;;9.40;;
4553;SDS011;2289;48.316;15.174;2023-02-28T06:57:05;13.03;;;8.30;;
4553;SDS011;2289;48.316;15.174;2023-02-28T07:02:29;12.47;;;8.77;;
4553;SDS011;2289;48.316;15.174;2023-02-28T07:04:58;12.93;;;7.37;;
4553;SDS011;2289;48.316;15.174;2023-02-28T07:07:27;11.50;;;6.53;;
4553;SDS011;2289;48.316;15.174;2023-02-28T07:09:56;13.10;;;8.27;;
4553;SDS011;2289;48.316;15.174;2023-02-28T07:12:25;12.67;;;7.73;;
4553;SDS011;2289;48.316;15.174;2023-02-28T07:14:53;11.37;;;8.20;;
4553;SDS011;2289;48.316;15.174;2023-02-28T07:17:24;12.13;;;6.80;;
4553;SDS011;2289;48.316;15.174;2023-02-28T07:19:54;8.77;;;6.30;;
4553;SDS011;2289;48.316;15.174;2023-02-28T07:22:23;13.23;;;7.20;;
4553;SDS011;2289;48.316;15.174;2023-02-28T07:24:51;11.87;;;8.20;;
4553;SDS011;2289;48.316;15.174;2023-02-28T07:27:20;14.73;;;8.70;;
4553;SDS011;2289;48.316;15.174;2023-02-28T07:29:58;11.90;;;8.23;;
4553;SDS011;2289;48.316;15.174;2023-02-28T07:32:28;10.47;;;8.00;;
4553;SDS011;2289;48.316;15.174;2023-02-28T07:35:01;14.87;;;8.60;;
4553;SDS011;2289;48.316;15.174;2023-02-28T07:37:30;12.70;;;7.53;;
4553;SDS011;2289;48.316;15.174;2023-02-28T07:40:03;12.67;;;8.13;;
4553;SDS011;2289;48.316;15.174;2023-02-28T07:42:35;11.00;;;7.50;;
4553;SDS011;2289;48.316;15.174;2023-02-28T07:45:04;10.07;;;6.83;;
4553;SDS011;2289;48.316;15.174;2023-02-28T07:47:43;11.07;;;8.70;;
4553;SDS011;2289;48.316;15.174;2023-02-28T07:50:14;12.07;;;7.43;;
4553;SDS011;2289;48.316;15.174;2023-02-28T07:52:43;10.50;;;7.83;;
4553;SDS011;2289;48.316;15.174;2023-02-28T07:55:11;14.70;;;8.57;;
4553;SDS011;2289;48.316;15.174;2023-02-28T07:57:42;9.43;;;7.50;;
4553;SDS011;2289;48.316;15.174;2023-02-28T08:00:11;11.47;;;7.67;;
4553;SDS011;2289;48.316;15.174;2023-02-28T08:02:44;10.60;;;7.17;;
4553;SDS011;2289;48.316;15.174;2023-02-28T08:05:14;18.67;;;10.13;;
4553;SDS011;2289;48.316;15.174;2023-02-28T08:07:48;11.30;;;7.60;;
4553;SDS011;2289;48.316;15.174;2023-02-28T08:10:17;11.50;;;7.87;;
4553;SDS011;2289;48.316;15.174;2023-02-28T08:12:46;12.13;;;8.00;;
4553;SDS011;2289;48.316;15.174;2023-02-28T08:15:15;17.83;;;9.93;;
4553;SDS011;2289;48.316;15.174;2023-02-28T08:17:43;10.87;;;8.03;;
4553;SDS011;2289;48.316;15.174;2023-02-28T08:20:14;10.03;;;8.93;;
4553;SDS011;2289;48.316;15.174;2023-02-28T08:22:42;11.60;;;8.30;;
4553;SDS011;2289;48.316;15.174;2023-02-28T08:25:13;11.67;;;8.17;;
4553;SDS011;2289;48.316;15.174;2023-02-28T08:27:41;13.40;;;8.53;;
4553;SDS011;2289;48.316;15.174;2023-02-28T08:30:12;13.97;;;9.27;;
4553;SDS011;2289;48.316;15.174;2023-02-28T08:32:41;13.47;;;9.77;;
4553;SDS011;2289;48.316;15.174;2023-02-28T08:35:11;9.73;;;7.37;;
4553;SDS011;2289;48.316;15.174;2023-02-28T08:37:41;12.20;;;9.60;;
4553;SDS011;2289;48.316;15.174;2023-02-28T08:40:10;12.37;;;8.00;;
4553;SDS011;2289;48.316;15.174;2023-02-28T08:42:44;14.20;;;8.80;;
4553;SDS011;2289;48.316;15.174;2023-02-28T08:45:14;13.73;;;9.23;;
4553;SDS011;2289;48.316;15.174;2023-02-28T08:47:43;14.70;;;8.80;;
4553;SDS011;2289;48.316;15.174;2023-02-28T08:50:13;17.53;;;8.57;;
4553;SDS011;2289;48.316;15.174;2023-02-28T08:52:45;11.77;;;9.40;;
4553;SDS011;2289;48.316;15.174;2023-02-28T08:55:13;15.67;;;10.40;;
4553;SDS011;2289;48.316;15.174;2023-02-28T08:57:43;12.57;;;9.37;;
4553;SDS011;2289;48.316;15.174;2023-02-28T09:00:14;21.60;;;11.53;;
4553;SDS011;2289;48.316;15.174;2023-02-28T09:02:43;11.57;;;10.00;;
4553;SDS011;2289;48.316;15.174;2023-02-28T09:05:12;14.63;;;9.50;;
4553;SDS011;2289;48.316;15.174;2023-02-28T09:07:40;19.60;;;12.70;;
4553;SDS011;2289;48.316;15.174;2023-02-28T09:10:11;13.10;;;9.83;;
4553;SDS011;2289;48.316;15.174;2023-02-28T09:12:40;16.37;;;10.93;;
4553;SDS011;2289;48.316;15.174;2023-02-28T09:15:13;16.43;;;10.77;;
4553;SDS011;2289;48.316;15.174;2023-02-28T09:17:41;16.37;;;11.80;;
4553;SDS011;2289;48.316;15.174;2023-02-28T09:20:13;18.83;;;12.80;;
4553;SDS011;2289;48.316;15.174;2023-02-28T09:22:42;13.60;;;11.40;;
4553;SDS011;2289;48.316;15.174;2023-02-28T09:25:12;13.80;;;11.60;;
4553;SDS011;2289;48.316;15.174;2023-02-28T09:27:44;21.43;;;10.97;;
4553;SDS011;2289;48.316;15.174;2023-02-28T09:30:13;13.70;;;11.43;;
4553;SDS011;2289;48.316;15.174;2023-02-28T09:32:43;13.70;;;11.20;;
4553;SDS011;2289;48.316;15.174;2023-02-28T09:35:18;15.60;;;11.60;;
4553;SDS011;2289;48.316;15.174;2023-02-28T09:38:00;15.93;;;12.47;;
4553;SDS011;2289;48.316;15.174;2023-02-28T09:40:31;14.53;;;11.07;;
4553;SDS011;2289;48.316;15.174;2023-02-28T09:42:59;18.30;;;11.43;;
4553;SDS011;2289;48.316;15.174;2023-02-28T09:45:29;16.13;;;12.70;;
4553;SDS011;2289;48.316;15.174;2023-02-28T09:48:02;13.57;;;11.50;;
4553;SDS011;2289;48.316;15.174;2023-02-28T09:50:33;15.43;;;10.50;;
4553;SDS011;2289;48.316;15.174;2023-02-28T09:53:05;13.60;;;11.30;;
4553;SDS011;2289;48.316;15.174;2023-02-28T09:55:42;14.40;;;11.07;;
4553;SDS011;2289;48.316;15.174;2023-02-28T09:58:15;15.40;;;11.73;;
4553;SDS011;2289;48.316;15.174;2023-02-28T10:00:46;14.80;;;11.53;;
4553;SDS011;2289;48.316;15.174;2023-02-28T10:03:30;15.07;;;11.70;;
4553;SDS011;2289;48.316;15.174;2023-02-28T10:06:03;12.43;;;11.10;;
4553;SDS011;2289;48.316;15.174;2023-02-28T10:08:47;18.80;;;12.43;;
4553;SDS011;2289;48.316;15.174;2023-02-28T10:11:32;16.80;;;12.87;;
4553;SDS011;2289;48.316;15.174;2023-02-28T10:14:02;13.87;;;11.30;;
4553;SDS011;2289;48.316;15.174;2023-02-28T10:16:34;17.10;;;12.17;;
4553;SDS011;2289;48.316;15.174;2023-02-28T10:19:05;14.93;;;10.83;;
4553;SDS011;2289;48.316;15.174;2023-02-28T10:21:40;14.60;;;11.30;;
4553;SDS011;2289;48.316;15.174;2023-02-28T10:24:15;16.63;;;12.83;;
4553;SDS011;2289;48.316;15.174;2023-02-28T10:27:01;14.17;;;11.77;;
4553;SDS011;2289;48.316;15.174;2023-02-28T10:29:34;13.10;;;9.73;;
4553;SDS011;2289;48.316;15.174;2023-02-28T10:32:03;19.90;;;12.63;;
4553;SDS011;2289;48.316;15.174;2023-02-28T10:34:38;23.77;;;14.43;;
4553;SDS011;2289;48.316;15.174;2023-02-28T10:37:07;18.60;;;11.90;;
4553;SDS011;2289;48.316;15.174;2023-02-28T10:39:40;15.07;;;12.47;;
4553;SDS011;2289;48.316;15.174;2023-02-28T10:42:20;22.37;;;18.87;;
4553;SDS011;2289;48.316;15.174;2023-02-28T10:45:06;15.90;;;13.40;;
4553;SDS011;2289;48.316;15.174;2023-02-28T10:47:41;15.30;;;13.60;;
4553;SDS011;2289;48.316;15.174;2023-02-28T10:50:26;14.00;;;12.50;;
4553;SDS011;2289;48.316;15.174;2023-02-28T10:53:05;15.87;;;13.33;;
4553;SDS011;2289;48.316;15.174;2023-02-28T10:55:56;15.13;;;12.43;;
4553;SDS011;2289;48.316;15.174;2023-02-28T10:58:27;15.67;;;12.67;;
4553;SDS011;2289;48.316;15.174;2023-02-28T11:00:58;15.03;;;12.60;;
4553;SDS011;2289;48.316;15.174;2023-02-28T11:03:29;14.23;;;11.73;;
4553;SDS011;2289;48.316;15.174;2023-02-28T11:06:04;15.07;;;12.47;;
4553;SDS011;2289;48.316;15.174;2023-02-28T11:08:34;15.77;;;12.83;;
4553;SDS011;2289;48.316;15.174;2023-02-28T11:11:13;17.30;;;11.30;;
4553;SDS011;2289;48.316;15.174;2023-02-28T11:13:45;17.00;;;13.63;;
4553;SDS011;2289;48.316;15.174;2023-02-28T11:16:16;16.70;;;14.33;;
4553;SDS011;2289;48.316;15.174;2023-02-28T11:18:47;16.93;;;13.53;;
4553;SDS011;2289;48.316;15.174;2023-02-28T11:21:21;14.70;;;12.93;;
4553;SDS011;2289;48.316;15.174;2023-02-28T11:23:56;15.60;;;13.07;;
4553;SDS011;2289;48.316;15.174;2023-02-28T11:26:36;15.40;;;13.83;;
4553;SDS011;2289;48.316;15.174;2023-02-28T11:29:18;16.80;;;14.20;;
4553;SDS011;2289;48.316;15.174;2023-02-28T11:32:02;15.87;;;14.27;;
4553;SDS011;2289;48.316;15.174;2023-02-28T11:34:32;17.40;;;13.87;;
4553;SDS011;2289;48.316;15.174;2023-02-28T11:37:01;16.90;;;13.73;;
4553;SDS011;2289;48.316;15.174;2023-02-28T11:39:32;19.00;;;13.27;;
4553;SDS011;2289;48.316;15.174;2023-02-28T11:42:07;20.37;;;14.57;;
4553;SDS011;2289;48.316;15.174;2023-02-28T11:45:01;17.07;;;14.63;;
4553;SDS011;2289;48.316;15.174;2023-02-28T11:47:37;16.03;;;13.53;;
4553;SDS011;2289;48.316;15.174;2023-02-28T11:50:16;18.00;;;12.30;;
4553;SDS011;2289;48.316;15.174;2023-02-28T11:52:52;19.07;;;12.50;;
4553;SDS011;2289;48.316;15.174;2023-02-28T11:55:23;15.00;;;12.00;;
4553;SDS011;2289;48.316;15.174;2023-02-28T11:58:14;16.73;;;13.10;;
4553;SDS011;2289;48.316;15.174;2023-02-28T12:00:59;17.67;;;12.10;;
4553;SDS011;2289;48.316;15.174;2023-02-28T12:03:35;16.13;;;12.57;;
4553;SDS011;2289;48.316;15.174;2023-02-28T12:06:14;14.53;;;12.80;;
4553;SDS011;2289;48.316;15.174;2023-02-28T12:08:49;21.60;;;13.77;;
4553;SDS011;2289;48.316;15.174;2023-02-28T12:11:28;15.47;;;11.83;;
4553;SDS011;2289;48.316;15.174;2023-02-28T12:14:12;15.83;;;13.00;;
4553;SDS011;2289;48.316;15.174;2023-02-28T12:17:02;16.33;;;12.13;;
4553;SDS011;2289;48.316;15.174;2023-02-28T12:19:43;16.60;;;13.43;;
4553;SDS011;2289;48.316;15.174;2023-02-28T12:22:22;19.40;;;13.17;;
4553;SDS011;2289;48.316;15.174;2023-02-28T12:28:11;13.73;;;10.80;;
4553;SDS011;2289;48.316;15.174;2023-02-28T12:30:46;17.97;;;12.20;;
4553;SDS011;2289;48.316;15.174;2023-02-28T12:33:24;16.30;;;12.47;;
4553;SDS011;2289;48.316;15.174;2023-02-28T12:35:57;16.47;;;13.37;;
4553;SDS011;2289;48.316;15.174;2023-02-28T12:38:27;16.47;;;14.27;;
4553;SDS011;2289;48.316;15.174;2023-02-28T12:40:58;18.37;;;13.47;;
4553;SDS011;2289;48.316;15.174;2023-02-28T12:43:30;18.70;;;14.67;;
4553;SDS011;2289;48.316;15.174;2023-02-28T12:46:02;19.63;;;13.80;;
4553;SDS011;2289;48.316;15.174;2023-02-28T12:48:39;24.43;;;14.87;;
4553;SDS011;2289;48.316;15.174;2023-02-28T12:51:10;22.33;;;15.77;;
4553;SDS011;2289;48.316;15.174;2023-02-28T12:53:45;21.23;;;14.23;;
4553;SDS011;2289;48.316;15.174;2023-02-28T12:56:20;20.63;;;16.50;;
4553;SDS011;2289;48.316;15.174;2023-02-28T12:58:55;19.30;;;13.37;;
4553;SDS011;2289;48.316;15.174;2023-02-28T13:04:44;15.90;;;13.37;;
4553;SDS011;2289;48.316;15.174;2023-02-28T13:10:37;15.77;;;11.37;;
4553;SDS011;2289;48.316;15.174;2023-02-28T13:13:13;17.90;;;12.90;;
4553;SDS011;2289;48.316;15.174;2023-02-28T13:16:00;18.37;;;14.77;;
4553;SDS011;2289;48.316;15.174;2023-02-28T13:18:35;16.90;;;12.83;;
4553;SDS011;2289;48.316;15.174;2023-02-28T13:21:09;16.90;;;14.07;;
4553;SDS011;2289;48.316;15.174;2023-02-28T13:23:40;19.33;;;13.77;;
4553;SDS011;2289;48.316;15.174;2023-02-28T13:29:34;18.87;;;13.77;;
4553;SDS011;2289;48.316;15.174;2023-02-28T13:35:15;18.47;;;13.03;;
4553;SDS011;2289;48.316;15.174;2023-02-28T13:44:09;13.97;;;11.60;;
4553;SDS011;2289;48.316;15.174;2023-02-28T13:49:47;21.33;;;13.50;;
4553;SDS011;2289;48.316;15.174;2023-02-28T13:52:17;16.50;;;11.90;;
4553;SDS011;2289;48.316;15.174;2023-02-28T14:00:44;17.17;;;12.80;;
4553;SDS011;2289;48.316;15.174;2023-02-28T14:03:36;14.50;;;11.07;;
4553;SDS011;2289;48.316;15.174;2023-02-28T14:06:14;14.90;;;12.40;;
4553;SDS011;2289;48.316;15.174;2023-02-28T14:08:54;17.20;;;12.00;;
4553;SDS011;2289;48.316;15.174;2023-02-28T14:11:29;17.00;;;12.27;;
4553;SDS011;2289;48.316;15.174;2023-02-28T14:13:59;14.40;;;11.33;;
4553;SDS011;2289;48.316;15.174;2023-02-28T14:19:19;14.33;;;11.70;;
4553;SDS011;2289;48.316;15.174;2023-02-28T14:21:54;19.00;;;12.30;;
4553;SDS011;2289;48.316;15.174;2023-02-28T14:27:30;16.90;;;12.80;;
4553;SDS011;2289;48.316;15.174;2023-02-28T14:30:24;17.30;;;12.43;;
4553;SDS011;2289;48.316;15.174;2023-02-28T14:33:23;18.17;;;12.17;;
4553;SDS011;2289;48.316;15.174;2023-02-28T14:36:00;17.27;;;11.83;;
4553;SDS011;2289;48.316;15.174;2023-02-28T14:38:32;17.03;;;13.20;;
4553;SDS011;2289;48.316;15.174;2023-02-28T14:41:04;13.77;;;11.70;;
4553;SDS011;2289;48.316;15.174;2023-02-28T14:43:55;15.00;;;12.10;;
4553;SDS011;2289;48.316;15.174;2023-02-28T14:46:26;19.13;;;12.00;;
4553;SDS011;2289;48.316;15.174;2023-02-28T14:48:57;18.30;;;12.67;;
4553;SDS011;2289;48.316;15.174;2023-02-28T14:51:27;13.03;;;11.60;;
4553;SDS011;2289;48.316;15.174;2023-02-28T14:53:57;15.00;;;12.13;;
4553;SDS011;2289;48.316;15.174;2023-02-28T14:56:29;13.73;;;11.70;;
4553;SDS011;2289;48.316;15.174;2023-02-28T14:59:04;15.50;;;12.40;;
4553;SDS011;2289;48.316;15.174;2023-02-28T15:01:34;14.20;;;12.80;;
4553;SDS011;2289;48.316;15.174;2023-02-28T15:04:03;15.10;;;12.50;;
4553;SDS011;2289;48.316;15.174;2023-02-28T15:06:33;17.33;;;13.70;;
4553;SDS011;2289;48.316;15.174;2023-02-28T15:09:06;16.00;;;12.90;;
4553;SDS011;2289;48.316;15.174;2023-02-28T15:11:45;15.33;;;12.90;;
4553;SDS011;2289;48.316;15.174;2023-02-28T15:14:17;17.93;;;13.00;;
4553;SDS011;2289;48.316;15.174;2023-02-28T15:16:49;18.30;;;13.50;;
4553;SDS011;2289;48.316;15.174;2023-02-28T15:19:20;16.30;;;12.93;;
4553;SDS011;2289;48.316;15.174;2023-02-28T15:21:52;18.70;;;12.97;;
4553;SDS011;2289;48.316;15.174;2023-02-28T15:24:25;24.63;;;15.97;;
4553;SDS011;2289;48.316;15.174;2023-02-28T15:27:02;19.43;;;15.13;;
4553;SDS011;2289;48.316;15.174;2023-02-28T15:29:41;15.57;;;11.83;;
4553;SDS011;2289;48.316;15.174;2023-02-28T15:32:27;17.40;;;13.13;;
4553;SDS011;2289;48.316;15.174;2023-02-28T15:34:57;20.40;;;14.67;;
4553;SDS011;2289;48.316;15.174;2023-02-28T15:37:28;14.70;;;11.67;;
4553;SDS011;2289;48.316;15.174;2023-02-28T15:40:05;14.83;;;11.83;;
4553;SDS011;2289;48.316;15.174;2023-02-28T15:42:59;13.63;;;11.03;;
4553;SDS011;2289;48.316;15.174;2023-02-28T15:45:34;16.83;;;12.43;;
4553;SDS011;2289;48.316;15.174;2023-02-28T15:48:15;15.90;;;11.67;;
4553;SDS011;2289;48.316;15.174;2023-02-28T15:50:50;19.57;;;13.83;;
4553;SDS011;2289;48.316;15.174;2023-02-28T15:53:21;15.93;;;11.10;;
4553;SDS011;2289;48.316;15.174;2023-02-28T15:55:52;14.60;;;11.80;;
4553;SDS011;2289;48.316;15.174;2023-02-28T15:58:22;15.90;;;11.20;;
4553;SDS011;2289;48.316;15.174;2023-02-28T16:01:08;15.63;;;10.13;;
4553;SDS011;2289;48.316;15.174;2023-02-28T16:06:44;16.33;;;11.60;;
4553;SDS011;2289;48.316;15.174;2023-02-28T16:09:15;16.10;;;11.13;;
4553;SDS011;2289;48.316;15.174;2023-02-28T16:11:45;18.27;;;12.10;;
4553;SDS011;2289;48.316;15.174;2023-02-28T16:14:16;17.37;;;11.27;;